Portada
METAR-TAF:

METAR-TAF

Aeropuertos :

Aeropuerto Internacional de Sunan

Pionyang, Corea del Norte

latitud: 39-02N, longitud: 125-47E, altitud: 36 m

METAR: falta

Hora: 21:45 (12:45 UTC)

Pronóstico

El informe se hizo hace 8 horas y 35 minutos, a las 04:10 UTC
Pronóstico válido del 02 a las 06 UTC al 03 a las 06 UTC
Viento 10 kt del norte-noroeste
Visibilidad 10 km o más
sin nubes por debajo de 1500 m y sin presencia de cumulonimbus.
Temporalmente
del 02 a las 10 UTC al 02 a las 18 UTC
Cielo nuboso a una altura de 3000 ft

TAF: ZKPY 020410Z 0206/0306 34005MPS CAVOK TX03/0206Z TNM07/0222Z TEMPO 0210/0218 BKN030

Observaciones y pronósticos meteorológicos de más de 4000 aeropuertos (mensajes METAR y TAF).

Los puntos amarillos y rojos representan las estaciones disponibles.

Ponga el ratón en el punto deseado para ver el nombre de la estación.

Haga clic para ver las observaciones y los pronósticos meteorológicos.

Para cambiar el mapa : haga clic en los botones verdes con una cruz de color negro para hacer un zoom, en el botón verde con un guión para alejar o en las flechas verdes para mapas adyacentes.


METAR-TAF: